Time;durP1;ratioP1;P1;durP2;ratioP2;P2;SDS_P1;SDS_P2;PMS_P1;PMS_P2;Temp;Humidity;BMP_temperature;BMP_pressure;BME280_temperature;BME280_humidity;BME280_pressure;Samples;Min_cycle;Max_cycle;Signal;HPM_P1;HPM_P2
2023/04/27 00:00:54;;;;;;;5.97;2.43;;;;;;;14.12;45.70;94322.00;5129927;27;20640;-46
2023/04/27 00:03:20;;;;;;;5.70;3.07;;;;;;;14.09;45.88;94327.47;5129930;27;20279;-46
2023/04/27 00:05:47;;;;;;;2.80;2.30;;;;;;;14.06;45.65;94326.03;5130233;27;20199;-47
2023/04/27 00:08:14;;;;;;;5.77;2.30;;;;;;;14.04;45.57;94322.84;5129597;27;20204;-48
2023/04/27 00:10:42;;;;;;;4.43;2.50;;;;;;;14.02;45.79;94331.69;5130184;27;20286;-49
2023/04/27 00:13:09;;;;;;;2.63;2.27;;;;;;;14.00;45.57;94337.00;5129510;27;20649;-47
2023/04/27 00:15:36;;;;;;;6.97;2.70;;;;;;;13.98;45.69;94335.56;5129636;27;20195;-49
2023/04/27 00:18:03;;;;;;;2.87;2.37;;;;;;;13.97;45.62;94332.19;5130050;28;20560;-47
2023/04/27 00:20:29;;;;;;;6.40;2.80;;;;;;;13.95;45.65;94343.63;5129884;28;20194;-48
2023/04/27 00:22:56;;;;;;;7.00;2.83;;;;;;;13.91;45.65;94335.44;5129806;28;20191;-47
2023/04/27 00:25:23;;;;;;;3.83;2.57;;;;;;;13.88;45.65;94342.66;5129797;28;20191;-47
2023/04/27 00:27:51;;;;;;;2.67;2.30;;;;;;;13.83;45.68;94335.47;5129894;28;20220;-48
2023/04/27 00:30:18;;;;;;;4.03;2.30;;;;;;;13.80;45.77;94335.78;5130171;28;20203;-47
2023/04/27 00:32:45;;;;;;;3.33;2.57;;;;;;;13.77;45.62;94336.94;5130340;28;20203;-46
2023/04/27 00:35:12;;;;;;;4.00;2.40;;;;;;;13.75;45.77;94332.91;5129879;28;20249;-47
2023/04/27 00:37:39;;;;;;;7.00;2.40;;;;;;;13.71;45.61;94329.88;5129741;28;20658;-48
2023/04/27 00:40:07;;;;;;;4.33;2.20;;;;;;;13.56;45.68;94316.13;5129627;28;20684;-47
2023/04/27 00:42:34;;;;;;;3.17;2.37;;;;;;;13.59;45.68;94323.47;5130569;28;20283;-51
2023/04/27 00:45:04;;;;;;;4.80;2.30;;;;;;;13.59;45.77;94327.81;5131883;27;20726;-46
2023/04/27 00:47:31;;;;;;;3.67;2.20;;;;;;;13.53;45.51;94337.00;5133511;27;20696;-48
2023/04/27 00:49:57;;;;;;;5.70;2.20;;;;;;;13.49;45.84;94336.50;5132921;27;20192;-47
2023/04/27 00:52:25;;;;;;;4.00;2.30;;;;;;;13.44;45.66;94332.84;5133554;27;20309;-49
2023/04/27 00:54:52;;;;;;;3.07;2.37;;;;;;;13.32;45.88;94324.66;5133539;27;20188;-47
2023/04/27 00:57:19;;;;;;;3.77;2.17;;;;;;;13.35;45.77;94336.41;5132927;27;20240;-47
2023/04/27 00:59:46;;;;;;;4.07;2.60;;;;;;;13.28;45.85;94334.47;5133389;27;20191;-47
2023/04/27 01:02:15;;;;;;;2.60;2.20;;;;;;;13.27;45.99;94347.47;5133664;27;20180;-47
2023/04/27 01:04:42;;;;;;;4.50;2.40;;;;;;;13.20;46.01;94343.91;5133019;27;20200;-47
2023/04/27 01:07:09;;;;;;;5.27;2.30;;;;;;;13.18;46.03;94345.84;5133322;27;20323;-47
2023/04/27 01:09:35;;;;;;;2.93;2.60;;;;;;;13.03;45.97;94328.50;5133236;27;20565;-49
2023/04/27 01:12:03;;;;;;;4.83;2.20;;;;;;;13.10;46.06;94345.84;5132899;27;20199;-48
2023/04/27 01:14:30;;;;;;;5.57;2.20;;;;;;;13.05;46.06;94347.13;5133633;27;20180;-47
2023/04/27 01:16:57;;;;;;;4.23;2.30;;;;;;;13.01;46.20;94347.63;5132712;27;20180;-47
2023/04/27 01:19:25;;;;;;;4.83;2.20;;;;;;;12.47;45.94;94268.53;5132812;27;20668;-47
2023/04/27 01:21:52;;;;;;;4.27;2.13;;;;;;;12.93;46.32;94347.63;5132872;27;20558;-50
2023/04/27 01:24:20;;;;;;;3.47;2.07;;;;;;;12.84;46.52;94341.69;5132808;27;20600;-48
2023/04/27 01:26:48;;;;;;;2.80;2.10;;;;;;;12.85;46.38;94357.88;5132577;27;20215;-49
2023/04/27 01:29:15;;;;;;;2.87;2.47;;;;;;;12.83;46.33;94358.06;5133398;27;20195;-47
2023/04/27 01:31:42;;;;;;;6.83;2.30;;;;;;;12.57;46.29;94324.84;5132787;27;20679;-49
2023/04/27 01:34:08;;;;;;;5.17;2.60;;;;;;;12.77;46.49;94363.81;5133017;27;20191;-49
2023/04/27 01:36:36;;;;;;;5.13;2.20;;;;;;;12.74;46.31;94370.06;5132021;27;20200;-49
2023/04/27 01:39:07;;;;;;;6.23;2.30;;;;;;;12.71;46.52;94365.25;5132662;27;20191;-47
2023/04/27 01:41:36;;;;;;;2.33;2.13;;;;;;;12.67;46.44;94360.59;5132801;27;20639;-47
2023/04/27 01:44:02;;;;;;;2.80;2.10;;;;;;;12.65;46.62;94363.31;5133033;27;20188;-48
2023/04/27 01:46:29;;;;;;;6.57;2.43;;;;;;;12.54;46.48;94354.16;5132361;27;20189;-47
2023/04/27 01:48:56;;;;;;;6.27;2.40;;;;;;;12.60;46.52;94372.44;5132357;27;20196;-48
2023/04/27 01:51:23;;;;;;;4.10;2.40;;;;;;;12.57;46.50;94363.31;5132644;27;20184;-48
2023/04/27 01:53:49;;;;;;;3.17;2.03;;;;;;;12.53;46.39;94367.16;5132477;27;20184;-47
2023/04/27 01:56:16;;;;;;;6.03;2.30;;;;;;;12.50;46.54;94360.56;5132347;27;20199;-49
2023/04/27 01:58:45;;;;;;;5.57;2.70;;;;;;;12.48;46.58;94357.38;5133126;27;20664;-47
2023/04/27 02:01:11;;;;;;;4.30;2.63;;;;;;;12.47;46.58;94360.88;5132368;27;20197;-49
2023/04/27 02:03:38;;;;;;;2.90;2.47;;;;;;;12.45;46.65;94362.81;5132168;27;20199;-47
2023/04/27 02:06:05;;;;;;;3.50;2.30;;;;;;;12.43;46.71;94363.91;5132315;27;20244;-50
2023/04/27 02:08:32;;;;;;;3.13;2.13;;;;;;;12.39;46.72;94363.44;5131571;27;20208;-49
2023/04/27 02:10:59;;;;;;;7.50;2.37;;;;;;;12.39;46.67;94365.19;5132243;27;20638;-48
2023/04/27 02:13:26;;;;;;;4.73;2.20;;;;;;;12.37;46.66;94360.22;5131684;27;20200;-49
2023/04/27 02:15:54;;;;;;;3.27;2.20;;;;;;;12.36;46.59;94366.31;5132246;27;20191;-49
2023/04/27 02:18:21;;;;;;;5.23;2.20;;;;;;;12.27;46.70;94357.00;5111460;28;20674;-47
2023/04/27 02:20:48;;;;;;;6.60;2.80;;;;;;;12.33;46.72;94364.06;5117854;27;20298;-47
2023/04/27 02:23:15;;;;;;;6.67;2.33;;;;;;;12.32;46.72;94367.56;5132237;27;20535;-48
2023/04/27 02:25:45;;;;;;;3.60;2.50;;;;;;;12.32;46.73;94371.91;5132047;27;20196;-49
2023/04/27 02:28:12;;;;;;;2.90;2.60;;;;;;;12.32;46.68;94370.13;5131719;27;20296;-47
2023/04/27 02:30:39;;;;;;;3.10;2.00;;;;;;;12.33;46.77;94379.44;5131993;27;20544;-46
2023/04/27 02:33:07;;;;;;;5.23;2.10;;;;;;;12.34;46.63;94367.41;5132212;27;20184;-46
2023/04/27 02:35:34;;;;;;;3.60;2.00;;;;;;;12.33;46.64;94370.94;5131463;27;20188;-46
2023/04/27 02:38:01;;;;;;;3.90;2.57;;;;;;;12.32;46.71;94370.13;5131623;27;20701;-48
2023/04/27 02:40:27;;;;;;;3.37;2.80;;;;;;;12.34;46.85;94370.78;5131404;27;20239;-50
2023/04/27 02:42:54;;;;;;;2.73;2.30;;;;;;;12.22;46.81;94352.34;5131875;27;20645;-45
2023/04/27 02:45:21;;;;;;;6.57;2.53;;;;;;;12.36;46.54;94379.13;5131827;27;20548;-45
2023/04/27 02:47:49;;;;;;;3.90;2.30;;;;;;;12.37;46.38;94379.94;5132167;27;20680;-47
2023/04/27 02:50:17;;;;;;;5.47;2.53;;;;;;;12.29;46.58;94371.25;5131492;27;20212;-46
2023/04/27 02:52:44;;;;;;;7.07;2.47;;;;;;;12.37;46.39;94377.38;5131413;27;20181;-46
2023/04/27 02:55:12;;;;;;;3.37;2.10;;;;;;;12.38;46.32;94379.75;5131337;27;20216;-48
2023/04/27 02:57:38;;;;;;;5.10;3.33;;;;;;;12.39;46.57;94381.38;5131399;27;20268;-46
2023/04/27 03:00:08;;;;;;;8.10;2.30;;;;;;;12.39;46.30;94380.56;5131574;27;20634;-47
2023/04/27 03:02:34;;;;;;;3.23;2.30;;;;;;;12.39;46.32;94389.09;5110783;28;20199;-48
2023/04/27 03:05:03;;;;;;;3.73;2.30;;;;;;;12.39;46.43;94386.53;5110398;28;20196;-47
2023/04/27 03:07:31;;;;;;;4.43;2.63;;;;;;;12.15;46.29;94342.84;5109742;28;20349;-48
2023/04/27 03:09:58;;;;;;;3.67;2.30;;;;;;;12.40;46.23;94384.75;5110692;28;20661;-47
2023/04/27 03:12:25;;;;;;;5.40;2.20;;;;;;;12.41;46.29;94388.91;5110172;28;20189;-48
2023/04/27 03:14:52;;;;;;;5.63;2.33;;;;;;;12.40;46.12;94392.44;5110376;28;20193;-45
2023/04/27 03:17:18;;;;;;;7.13;2.40;;;;;;;12.37;46.27;94387.63;5130286;27;20191;-49
2023/04/27 03:19:47;;;;;;;5.33;2.43;;;;;;;12.41;46.26;94396.59;5130649;27;20201;-47
2023/04/27 03:22:14;;;;;;;4.73;2.47;;;;;;;12.43;46.18;94399.81;5130411;27;20196;-47
2023/04/27 03:24:42;;;;;;;2.43;2.23;;;;;;;12.43;46.13;94403.16;5130719;27;20219;-47
2023/04/27 03:27:09;;;;;;;4.93;2.20;;;;;;;12.44;46.15;94404.00;5130505;27;20189;-48
2023/04/27 03:29:36;;;;;;;9.43;2.83;;;;;;;12.45;45.81;94408.16;5131136;27;20199;-46
2023/04/27 03:32:04;;;;;;;5.20;2.43;;;;;;;12.44;46.08;94409.94;5131257;27;20191;-48
2023/04/27 03:34:31;;;;;;;7.37;3.07;;;;;;;12.45;45.99;94411.53;5130692;27;20200;-48
2023/04/27 03:36:58;;;;;;;2.53;2.10;;;;;;;12.43;45.97;94402.38;5130345;27;20184;-46
2023/04/27 03:39:24;;;;;;;4.10;2.33;;;;;;;12.46;45.99;94414.88;5130762;27;20184;-46
2023/04/27 03:41:53;;;;;;;3.03;2.50;;;;;;;12.46;45.97;94410.56;5130744;27;20176;-47
2023/04/27 03:44:20;;;;;;;4.17;2.40;;;;;;;12.46;46.01;94407.19;5130460;27;20778;-48
2023/04/27 03:46:46;;;;;;;2.77;2.30;;;;;;;12.45;45.72;94408.97;5110224;28;20272;-47
2023/04/27 03:49:13;;;;;;;2.73;2.33;;;;;;;12.48;45.88;94418.13;5109483;28;20204;-47
2023/04/27 03:51:41;;;;;;;7.10;2.33;;;;;;;12.50;45.78;94411.06;5123452;27;20188;-47
2023/04/27 03:54:08;;;;;;;3.70;2.10;;;;;;;12.51;45.68;94417.78;5131381;27;20192;-47
2023/04/27 03:56:35;;;;;;;2.93;2.10;;;;;;;12.46;45.78;94407.19;5131781;27;20180;-47
2023/04/27 03:59:04;;;;;;;2.37;1.93;;;;;;;12.57;45.56;94417.19;5129991;27;20675;-48
2023/04/27 04:01:30;;;;;;;3.63;2.53;;;;;;;12.60;45.64;94426.31;5110073;28;20206;-47
2023/04/27 04:03:57;;;;;;;4.67;2.10;;;;;;;12.64;45.58;94433.53;5109904;28;20185;-47
2023/04/27 04:06:24;;;;;;;2.00;1.83;;;;;;;12.67;45.43;94440.91;5120791;27;20192;-47
2023/04/27 04:08:51;;;;;;;5.40;2.40;;;;;;;12.69;45.52;94435.63;5130075;27;20245;-46
2023/04/27 04:11:18;;;;;;;8.57;2.73;;;;;;;12.73;45.32;94442.84;5130128;27;20561;-47
2023/04/27 04:13:46;;;;;;;4.23;2.60;;;;;;;12.78;45.36;94445.78;5130858;27;20203;-46
2023/04/27 04:16:14;;;;;;;3.50;2.30;;;;;;;12.68;45.32;94416.88;5130231;27;20192;-48
2023/04/27 04:18:41;;;;;;;4.13;2.40;;;;;;;12.93;45.03;94455.41;5131739;27;20533;-47
2023/04/27 04:21:09;;;;;;;4.23;2.93;;;;;;;12.99;44.94;94457.34;5136101;27;20199;-47
2023/04/27 04:23:36;;;;;;;5.80;2.50;;;;;;;13.03;44.87;94456.88;5136223;27;20809;-48
2023/04/27 04:26:03;;;;;;;7.47;2.60;;;;;;;13.09;44.83;94457.22;5136384;27;20237;-47
2023/04/27 04:28:30;;;;;;;2.43;2.07;;;;;;;13.15;44.50;94461.69;5136863;27;20223;-47
2023/04/27 04:30:57;;;;;;;4.63;2.73;;;;;;;13.17;44.59;94460.59;5136655;27;20192;-49
2023/04/27 04:33:26;;;;;;;2.30;2.10;;;;;;;13.27;44.25;94468.97;5136525;27;20240;-45
2023/04/27 04:35:53;;;;;;;3.27;2.50;;;;;;;13.40;44.43;94472.84;5135792;27;20275;-46
2023/04/27 04:38:20;;;;;;;3.50;2.30;;;;;;;13.65;44.18;94469.28;5135587;27;20173;-45
2023/04/27 04:40:47;;;;;;;4.63;2.60;;;;;;;13.97;43.48;94470.22;5136079;27;20177;-46
2023/04/27 04:43:14;;;;;;;6.07;2.50;;;;;;;14.34;43.74;94471.41;5136126;27;20655;-46
2023/04/27 04:45:40;;;;;;;5.43;2.83;;;;;;;14.75;43.22;94472.06;5135672;27;20199;-47
2023/04/27 04:48:07;;;;;;;2.27;2.07;;;;;;;15.48;75.10;94471.59;5136062;27;20909;-47
2023/04/27 04:50:35;;;;;;;2.73;2.30;;;;;;;16.37;73.93;94471.78;5136035;27;20331;-45
2023/04/27 04:53:02;;;;;;;4.30;2.00;;;;;;;17.22;70.78;94476.34;5138007;27;20283;-46
2023/04/27 04:55:29;;;;;;;2.20;2.00;;;;;;;17.97;67.53;94475.03;5136558;27;20207;-47
2023/04/27 04:57:56;;;;;;;5.20;2.20;;;;;;;18.68;64.53;94480.03;5136556;27;20218;-48
2023/04/27 05:00:23;;;;;;;4.40;1.90;;;;;;;19.38;61.94;94485.06;5136552;27;20195;-47
2023/04/27 05:02:49;;;;;;;7.87;2.50;;;;;;;19.66;58.16;94427.84;5135898;27;20203;-47
2023/04/27 05:05:16;;;;;;;5.67;2.40;;;;;;;20.57;56.96;94500.66;5136736;27;20271;-47
2023/04/27 05:07:44;;;;;;;5.53;1.93;;;;;;;20.94;55.75;94496.53;5136551;27;20207;-46
2023/04/27 05:10:11;;;;;;;3.77;2.30;;;;;;;21.17;54.73;94497.84;5136637;27;20196;-47
2023/04/27 05:12:38;;;;;;;6.43;2.47;;;;;;;21.38;53.70;94502.75;5136190;27;20676;-46
2023/04/27 05:15:06;;;;;;;9.63;2.30;;;;;;;21.52;52.67;94501.66;5131304;27;20590;-47
2023/04/27 05:17:33;;;;;;;6.65;2.47;;;;;;;21.50;51.55;94495.06;5132601;27;20500;-46
2023/04/27 05:20:00;;;;;;;5.40;2.17;;;;;;;21.69;50.46;94504.56;5135907;27;20410;-49
2023/04/27 05:22:27;;;;;;;5.43;2.30;;;;;;;21.76;49.90;94507.09;5134566;27;20188;-47
2023/04/27 05:24:56;;;;;;;7.13;2.33;;;;;;;21.79;49.55;94519.69;5134940;27;20231;-46
2023/04/27 05:27:23;;;;;;;4.57;2.10;;;;;;;21.78;50.18;94516.31;5134763;27;20192;-47
2023/04/27 05:29:49;;;;;;;8.73;4.63;;;;;;;21.92;50.58;94521.41;5134322;27;20688;-48
2023/04/27 05:32:16;;;;;;;14.80;10.38;;;;;;;21.99;53.85;94522.16;5131402;27;20211;-45
2023/04/27 05:34:43;;;;;;;12.10;6.50;;;;;;;22.05;54.08;94521.31;5131756;27;20196;-46
2023/04/27 05:37:10;;;;;;;10.55;6.00;;;;;;;22.01;53.19;94530.56;5131774;27;20181;-47
2023/04/27 05:39:37;;;;;;;6.50;4.70;;;;;;;21.86;50.73;94524.88;5131007;27;20252;-48
2023/04/27 05:42:05;;;;;;;6.85;4.43;;;;;;;21.62;49.15;94529.81;5131459;27;20507;-45
2023/04/27 05:44:32;;;;;;;10.63;4.68;;;;;;;21.35;48.37;94536.19;5131647;27;20191;-50
2023/04/27 05:46:59;;;;;;;5.45;3.85;;;;;;;21.10;47.44;94533.47;5131540;27;20188;-46
2023/04/27 05:49:26;;;;;;;13.77;3.60;;;;;;;20.86;47.08;94533.16;5131304;27;20230;-45
2023/04/27 05:51:53;;;;;;;6.05;3.15;;;;;;;20.63;46.52;94538.81;5131331;27;20196;-47
2023/04/27 05:54:20;;;;;;;8.63;3.45;;;;;;;20.41;45.79;94530.41;5131080;27;20181;-48
2023/04/27 05:56:47;;;;;;;6.90;3.37;;;;;;;20.22;45.38;94534.66;5130520;27;20226;-47
2023/04/27 05:59:15;;;;;;;5.80;3.33;;;;;;;20.04;45.21;94535.25;5131134;27;20181;-48
2023/04/27 06:01:42;;;;;;;4.60;2.97;;;;;;;19.91;44.80;94535.25;5130130;27;20657;-47
2023/04/27 06:04:08;;;;;;;3.37;3.07;;;;;;;19.78;44.23;94527.47;5131395;27;20199;-48
2023/04/27 06:06:35;;;;;;;3.73;2.97;;;;;;;19.73;44.01;94541.03;5130741;27;20188;-47
2023/04/27 06:09:02;;;;;;;6.70;2.87;;;;;;;19.68;43.76;94532.22;5131397;27;20246;-46
2023/04/27 06:11:29;;;;;;;6.77;3.40;;;;;;;19.62;43.50;94531.22;5130389;27;20279;-47
2023/04/27 06:13:56;;;;;;;5.90;2.97;;;;;;;19.57;43.37;94531.00;5131264;27;20687;-49
2023/04/27 06:16:24;;;;;;;6.67;2.67;;;;;;;19.58;43.13;94529.97;5130673;27;20207;-47
2023/04/27 06:18:52;;;;;;;4.53;2.67;;;;;;;19.57;42.96;94536.19;5131108;27;20195;-47
2023/04/27 06:21:19;;;;;;;4.43;2.53;;;;;;;19.58;42.61;94536.97;5130708;27;20188;-47
2023/04/27 06:23:46;;;;;;;4.17;2.77;;;;;;;19.53;42.35;94527.19;5130697;27;20240;-48
2023/04/27 06:26:12;;;;;;;5.47;2.80;;;;;;;19.60;42.03;94527.97;5130402;27;20191;-47
2023/04/27 06:28:39;;;;;;;5.63;2.50;;;;;;;19.66;41.88;94529.03;5130368;27;20216;-47
2023/04/27 06:31:06;;;;;;;5.67;2.70;;;;;;;19.74;41.52;94527.06;5130803;27;20184;-48
2023/04/27 06:33:34;;;;;;;3.20;2.23;;;;;;;19.88;41.59;94527.84;5130339;27;20184;-47
2023/04/27 06:36:01;;;;;;;6.70;2.20;;;;;;;20.13;41.46;94527.28;5129960;27;20279;-48
2023/04/27 06:38:28;;;;;;;7.23;2.47;;;;;;;20.39;41.52;94519.44;5130533;27;20630;-47
2023/04/27 06:40:55;;;;;;;2.50;2.30;;;;;;;20.72;41.40;94527.19;5132440;27;20196;-47
2023/04/27 06:43:22;;;;;;;3.30;2.30;;;;;;;21.04;41.43;94519.50;5129542;27;20657;-47
2023/04/27 06:45:49;;;;;;;2.22;2.00;;;;;;;21.39;41.04;94513.97;5130600;27;20180;-47
2023/04/27 06:48:16;;;;;;;5.03;2.30;;;;;;;21.67;40.64;94521.38;5130420;27;20185;-47
2023/04/27 06:50:45;;;;;;;3.80;2.05;;;;;;;21.86;40.46;94520.47;5130936;27;20737;-47
2023/04/27 06:53:12;;;;;;;4.78;2.45;;;;;;;21.99;40.61;94519.56;5128415;27;20281;-48
2023/04/27 06:55:39;;;;;;;4.45;2.97;;;;;;;22.09;40.55;94525.09;5130406;27;20177;-48
2023/04/27 06:58:06;;;;;;;3.17;2.25;;;;;;;22.18;40.37;94520.44;5128594;27;20184;-49
2023/04/27 07:00:33;;;;;;;3.03;2.30;;;;;;;22.32;40.24;94521.13;5130126;27;20188;-47
2023/04/27 07:03:00;;;;;;;3.13;2.40;;;;;;;22.47;39.91;94517.16;5132303;27;20217;-47
2023/04/27 07:05:27;;;;;;;5.70;2.60;;;;;;;22.73;39.46;94521.31;5130668;27;20180;-48
2023/04/27 07:07:55;;;;;;;3.33;2.08;;;;;;;23.08;38.90;94515.53;5130362;27;20192;-49
2023/04/27 07:10:22;;;;;;;8.20;2.47;;;;;;;23.39;38.68;94513.72;5130328;27;20614;-48
2023/04/27 07:12:48;;;;;;;4.60;2.38;;;;;;;23.69;38.45;94516.38;5130533;27;20188;-48
2023/04/27 07:15:15;;;;;;;3.97;2.00;;;;;;;24.01;38.10;94512.47;5129363;27;20187;-48
2023/04/27 07:17:42;;;;;;;3.85;2.30;;;;;;;24.44;37.76;94503.53;5129731;27;20590;-48
2023/04/27 07:20:09;;;;;;;2.90;2.10;;;;;;;24.95;37.65;94515.03;5129484;27;20680;-48
2023/04/27 07:22:36;;;;;;;3.60;2.20;;;;;;;25.46;37.24;94516.06;5126568;27;20649;-48
2023/04/27 07:25:05;;;;;;;1.80;1.70;;;;;;;25.85;36.57;94512.81;5128334;27;21012;-47
2023/04/27 07:27:34;;;;;;;3.22;2.10;;;;;;;26.13;36.46;94512.75;5130004;27;20192;-48
2023/04/27 07:30:01;;;;;;;2.40;1.98;;;;;;;26.28;35.96;94501.69;5128874;27;20698;-48
2023/04/27 07:32:28;;;;;;;2.55;1.90;;;;;;;26.49;36.13;94516.72;5129394;27;20200;-48
2023/04/27 07:34:55;;;;;;;2.10;1.90;;;;;;;26.59;35.73;94513.44;5129565;27;20196;-47
2023/04/27 07:37:22;;;;;;;4.22;1.90;;;;;;;26.52;35.57;94486.59;5129294;27;20184;-50
2023/04/27 07:39:50;;;;;;;3.30;2.00;;;;;;;26.86;35.58;94512.75;5129887;27;20191;-47
2023/04/27 07:42:21;;;;;;;2.67;2.08;;;;;;;27.00;35.24;94513.97;5129434;27;20633;-49
2023/04/27 07:44:49;;;;;;;3.08;1.90;;;;;;;27.06;35.24;94510.38;5128631;27;20657;-49
2023/04/27 07:47:16;;;;;;;4.30;1.90;;;;;;;26.99;35.34;94515.81;5128573;27;20233;-49
2023/04/27 07:49:44;;;;;;;5.60;2.15;;;;;;;26.95;35.51;94506.06;5129100;27;20307;-47
2023/04/27 07:52:11;;;;;;;2.53;1.80;;;;;;;26.98;35.15;94514.22;5128997;27;20188;-50
2023/04/27 07:54:38;;;;;;;2.72;1.83;;;;;;;27.12;34.66;94517.31;5128994;27;20195;-49
2023/04/27 07:57:08;;;;;;;2.28;1.75;;;;;;;27.33;34.77;94510.47;5129275;27;20684;-46
2023/04/27 07:59:36;;;;;;;3.53;1.83;;;;;;;27.74;34.31;94511.66;5129533;27;20204;-45
2023/04/27 08:02:03;;;;;;;2.67;1.98;;;;;;;28.30;34.52;94513.16;5127825;27;20180;-49
2023/04/27 08:04:30;;;;;;;2.42;2.00;;;;;;;28.88;34.07;94514.06;5128917;27;20200;-49
2023/04/27 08:06:57;;;;;;;2.58;2.08;;;;;;;29.43;33.46;94518.78;5128644;27;20572;-47
2023/04/27 08:09:24;;;;;;;1.98;1.88;;;;;;;29.95;33.36;94511.75;5129065;27;20586;-46
2023/04/27 08:11:51;;;;;;;3.13;1.70;;;;;;;30.33;33.38;94514.97;5128454;27;20196;-47
2023/04/27 08:14:18;;;;;;;3.17;2.15;;;;;;;30.10;33.30;94421.31;5128915;27;20199;-47
2023/04/27 08:16:46;;;;;;;2.33;1.60;;;;;;;30.93;32.60;94519.34;5127594;28;20214;-47
2023/04/27 08:19:13;;;;;;;2.22;1.83;;;;;;;30.94;32.80;94512.22;5128694;28;20207;-47
2023/04/27 08:21:39;;;;;;;4.93;2.08;;;;;;;31.10;32.40;94510.31;5127496;27;20196;-46
2023/04/27 08:24:07;;;;;;;2.33;1.60;;;;;;;31.17;32.15;94521.34;5128590;28;20235;-48
2023/04/27 08:26:34;;;;;;;1.85;1.50;;;;;;;30.78;32.14;94463.13;5128592;28;20241;-47
2023/04/27 08:29:01;;;;;;;1.80;1.70;;;;;;;31.03;31.96;94523.00;5128610;27;20200;-51
2023/04/27 08:31:28;;;;;;;5.20;1.95;;;;;;;30.99;32.25;94518.25;5128785;28;20280;-50
2023/04/27 08:33:58;;;;;;;2.97;1.65;;;;;;;31.01;31.94;94512.72;5128772;28;20264;-49
2023/04/27 08:36:26;;;;;;;3.65;1.90;;;;;;;30.87;32.21;94516.97;5127813;28;20287;-48
2023/04/27 08:38:53;;;;;;;2.15;1.80;;;;;;;30.80;32.03;94514.63;5127003;28;20188;-46
2023/04/27 08:41:21;;;;;;;2.15;1.80;;;;;;;30.66;32.19;94516.22;5128348;28;20252;-48
2023/04/27 08:43:48;;;;;;;2.60;1.80;;;;;;;30.19;32.05;94465.38;5128342;27;20215;-47
2023/04/27 08:46:19;;;;;;;4.78;1.88;;;;;;;30.53;31.65;94519.41;5130316;27;20249;-51
2023/04/27 08:48:46;;;;;;;3.63;2.03;;;;;;;30.41;31.88;94517.06;5128439;28;20272;-46
2023/04/27 08:51:15;;;;;;;3.65;1.88;;;;;;;30.25;31.42;94513.63;5128443;28;20298;-48
2023/04/27 08:53:48;;;;;;;3.72;2.08;;;;;;;30.07;31.66;94516.78;5128158;28;20271;-46
2023/04/27 08:56:15;;;;;;;1.83;1.63;;;;;;;29.73;31.67;94498.81;5128398;28;20196;-45
2023/04/27 08:58:42;;;;;;;1.90;1.60;;;;;;;29.47;31.30;94504.03;5125562;28;20192;-51
2023/04/27 09:01:09;;;;;;;5.63;1.92;;;;;;;29.49;31.11;94514.28;5125493;28;20185;-47
2023/04/27 09:03:37;;;;;;;5.03;2.38;;;;;;;29.45;31.40;94529.06;5128333;27;20200;-51
2023/04/27 09:06:04;;;;;;;2.55;1.95;;;;;;;29.28;31.48;94518.75;5131382;27;20185;-50
2023/04/27 09:08:43;;;;;;;2.17;1.60;;;;;;;28.83;30.87;94474.56;5129858;27;20537;-49
2023/04/27 09:11:10;;;;;;;1.95;1.77;;;;;;;28.90;30.73;94507.50;5131924;27;20230;-51
2023/04/27 09:13:38;;;;;;;2.97;1.73;;;;;;;28.80;31.31;94520.63;5132432;27;20187;-48
2023/04/27 09:16:05;;;;;;;2.03;1.60;;;;;;;28.74;30.75;94514.50;5134242;27;20177;-47
2023/04/27 09:18:36;;;;;;;5.10;2.08;;;;;;;28.55;30.83;94478.38;5131923;27;20218;-47
2023/04/27 09:21:04;;;;;;;3.20;1.70;;;;;;;28.83;30.60;94508.78;5131887;27;20615;-48
2023/04/27 09:23:32;;;;;;;2.47;1.77;;;;;;;28.74;30.54;94506.63;5131882;27;20231;-48
2023/04/27 09:26:04;;;;;;;2.08;1.85;;;;;;;28.69;30.32;94505.81;5132461;27;20202;-47
2023/04/27 09:28:33;;;;;;;2.35;1.75;;;;;;;28.62;30.55;94492.88;5130894;27;20223;-47
2023/04/27 09:31:01;;;;;;;2.58;1.63;;;;;;;28.55;30.50;94499.44;5132423;27;20239;-46
2023/04/27 09:33:29;;;;;;;2.17;1.60;;;;;;;28.43;30.18;94494.34;5131880;27;20192;-47
2023/04/27 09:35:58;;;;;;;4.25;2.05;;;;;;;28.40;30.38;94500.09;5131813;27;20193;-47
2023/04/27 09:38:25;;;;;;;1.85;1.65;;;;;;;28.41;29.95;94486.72;5131205;27;20633;-47
2023/04/27 09:40:54;;;;;;;2.35;1.95;;;;;;;28.44;30.18;94486.19;5132994;27;20180;-47
2023/04/27 09:43:23;;;;;;;3.72;1.90;;;;;;;28.34;29.83;94487.94;5131561;27;20199;-47
2023/04/27 09:45:50;;;;;;;3.33;1.80;;;;;;;28.26;29.82;94481.31;5131344;27;20199;-46
2023/04/27 09:48:18;;;;;;;2.67;2.10;;;;;;;28.26;29.98;94481.31;5131783;27;20215;-45
2023/04/27 09:50:46;;;;;;;4.18;2.17;;;;;;;28.29;29.72;94478.19;5130447;27;20218;-46
2023/04/27 09:53:15;;;;;;;2.25;1.50;;;;;;;28.29;29.53;94477.41;5131597;27;20223;-47
2023/04/27 09:55:47;;;;;;;1.75;1.65;;;;;;;28.20;29.32;94471.81;5131254;27;20233;-46
2023/04/27 09:58:47;;;;;;;3.38;1.92;;;;;;;28.02;29.36;94478.25;5131686;27;20261;-46
2023/04/27 10:01:24;;;;;;;2.53;1.90;;;;;;;27.83;29.54;94464.69;5128239;27;20189;-47
2023/04/27 10:04:02;;;;;;;2.88;1.85;;;;;;;27.80;29.38;94475.69;5131160;27;20607;-47
2023/04/27 10:07:00;;;;;;;5.40;2.15;;;;;;;27.80;29.17;94465.19;5129326;27;20199;-46
2023/04/27 10:09:30;;;;;;;2.03;1.63;;;;;;;27.84;29.09;94468.91;5130667;27;20223;-47
2023/04/27 10:11:57;;;;;;;2.00;1.60;;;;;;;27.91;29.29;94464.25;5131532;27;20249;-49
2023/04/27 10:14:28;;;;;;;2.33;1.90;;;;;;;27.97;29.15;94467.69;5132297;27;20207;-47
2023/04/27 10:16:56;;;;;;;2.90;1.90;;;;;;;27.91;28.85;94466.06;5130785;27;20246;-46
2023/04/27 10:19:24;;;;;;;4.22;2.00;;;;;;;27.80;29.34;94467.81;5130997;27;20204;-49
2023/04/27 10:21:52;;;;;;;3.20;2.13;;;;;;;27.68;29.37;94462.72;5130876;27;20580;-49
2023/04/27 10:24:19;;;;;;;2.20;1.90;;;;;;;27.72;29.42;94466.47;5130449;27;20231;-48
2023/04/27 10:26:47;;;;;;;2.83;2.00;;;;;;;27.79;28.86;94462.81;5131137;27;20306;-48
2023/04/27 10:29:19;;;;;;;2.13;1.73;;;;;;;27.84;29.19;94470.75;5130830;27;20192;-48
2023/04/27 10:31:48;;;;;;;1.88;1.65;;;;;;;27.82;28.94;94470.22;5129469;27;20251;-47
2023/04/27 10:34:18;;;;;;;2.47;1.73;;;;;;;27.86;28.65;94466.03;5130525;27;20846;-46
2023/04/27 10:36:45;;;;;;;2.20;2.00;;;;;;;27.93;28.72;94462.13;5130750;27;20195;-48
2023/04/27 10:39:17;;;;;;;1.85;1.75;;;;;;;28.00;28.67;94468.00;5130326;27;20275;-47
2023/04/27 10:41:51;;;;;;;2.17;1.98;;;;;;;27.59;29.06;94408.22;5130534;27;20184;-47
2023/04/27 10:44:20;;;;;;;2.03;1.83;;;;;;;27.86;28.72;94453.69;5129995;27;20241;-49
2023/04/27 10:46:51;;;;;;;3.25;1.70;;;;;;;27.89;28.49;94461.09;5130560;27;20200;-48
2023/04/27 10:49:19;;;;;;;4.03;1.90;;;;;;;27.90;28.37;94464.50;5129937;27;20640;-47
2023/04/27 10:51:46;;;;;;;1.75;1.65;;;;;;;27.92;28.49;94463.19;5130217;27;20196;-46
2023/04/27 10:54:13;;;;;;;2.65;1.55;;;;;;;27.98;28.31;94461.41;5130340;27;20207;-47
2023/04/27 10:56:41;;;;;;;1.55;1.45;;;;;;;28.03;28.46;94453.56;5130335;27;20649;-46
2023/04/27 10:59:10;;;;;;;3.17;2.05;;;;;;;27.91;28.34;94466.06;5129062;27;20203;-47
2023/04/27 11:01:37;;;;;;;5.22;2.25;;;;;;;27.72;28.27;94469.09;5130034;27;20196;-47
2023/04/27 11:04:06;;;;;;;2.38;1.80;;;;;;;27.52;28.29;94464.41;5129669;27;20546;-46
2023/04/27 11:06:42;;;;;;;1.95;1.63;;;;;;;27.46;28.36;94456.72;5130419;27;20283;-47
2023/04/27 11:09:09;;;;;;;2.30;1.92;;;;;;;27.41;28.75;94460.09;5129576;27;20580;-48
2023/04/27 11:11:36;;;;;;;1.90;1.77;;;;;;;27.37;28.26;94455.59;5130202;27;20235;-48
2023/04/27 11:14:03;;;;;;;3.55;1.90;;;;;;;26.90;28.36;94403.59;5130013;27;20675;-47
2023/04/27 11:16:31;;;;;;;4.50;1.88;;;;;;;27.13;28.90;94460.34;5130019;27;20288;-48
2023/04/27 11:19:06;;;;;;;3.83;1.70;;;;;;;26.57;28.53;94389.63;5129919;27;20271;-47
2023/04/27 11:21:33;;;;;;;2.00;1.80;;;;;;;26.92;28.64;94457.44;5128281;27;20732;-48
2023/04/27 11:24:05;;;;;;;2.63;1.60;;;;;;;26.88;28.87;94469.47;5129907;27;20228;-48
2023/04/27 11:26:32;;;;;;;2.22;1.77;;;;;;;26.82;28.63;94462.59;5128602;27;20283;-49
2023/04/27 11:29:00;;;;;;;2.35;1.88;;;;;;;26.82;28.78;94475.72;5128698;27;20231;-47
2023/04/27 11:31:27;;;;;;;2.97;2.13;;;;;;;26.73;28.92;94470.09;5129389;27;20227;-46
2023/04/27 11:33:55;;;;;;;1.85;1.75;;;;;;;26.68;28.79;94474.47;5129582;27;20202;-47
2023/04/27 11:36:26;;;;;;;2.95;2.17;;;;;;;26.59;28.71;94466.22;5130283;27;20626;-48